Westerville, Nebraska
Current Conditions -  °F | °C
As of 1:53 PM on Thursday 30 Oct 2014 (Local Time) from KBBW Reporting Station
Clear Clear  
Wind Chill: 63°   Ceiling: Unl
Heat Index: 63°   Visibility: 10mi
Dew Point: 34°   Wind: 23mph
Humidity: 34%   Direction: 330°NNW
Pressure: 30.21"   Gusts: 31mph
Location:  41.4°N, 99.38°W
Report Text: KBBW 301853Z AUTO 33020G27KT 10SM CLR 17/01 A3021 RMK AO2 PK WND 34031/1817 SLP231 T01720011
Loading
Personal Weather Stations






























Interactive Weather Map
Tropical Storm Tracking
New forecast layout! Learn more

10-Day Weather Forecast

Advertisements
Track Severe Weather on mobile